Terminal Aerodrome Forecast
Issued by NWS

Home | Current Version | Previous Version | Text Only | Print | Product List | Glossary On
Versions: 1 2 3 4 5 6 7 8 9 10 11 12 13
813
FTAK31 PAJN 301739
TAFAPG
TAF
PAPG 301739Z 3018/0118 09010G20KT 6SM -RA BR BKN025 OVC035
     FM302100 10014G22KT 4SM RA BR FEW006 BKN015 OVC025
     FM010300 11006KT 5SM -RA BR BKN020 OVC030
     FM011200 07005KT 4SM -RA BR BKN010 OVC020
      AMD LTD TO CLD VIS AND WIND 0106/0115=

USA.gov is the U.S. government's official web portal to all federal, state and local government web resources and services.